Advance, North Carolina
Current Conditions -  °F | °C
As of 9:35 PM on Tuesday 21 Oct 2014 (Local Time) from KEXX Reporting Station
Clear Clear  
Wind Chill: 57°   Ceiling: Unl
Heat Index: 57°   Visibility: 10mi
Dew Point: 37°   Wind: 3mph
Humidity: 48%   Direction: 340°NNW
Pressure: 29.97"   Gusts: NA
Location:  35.95°N, 80.41°W
Report Text: KEXX 220135Z AUTO 34003KT 10SM CLR 14/03 A2997 RMK AO2 T01370028
Loading
Personal Weather Stations






























Interactive Weather Map New forecast layout! Learn more

10-Day Weather Forecast

Advertisements
Track Severe Weather on mobile